Three Rivers Municipal Dr Haines Airport

About
Name: Three Rivers Municipal Dr Haines Airport
Identifier:  HAI/KHAI
Local Time:  20. Aug 10:10 EDT
Location
Three Rivers
  United States

Flights per Day
0 flights
Distance: 474km (294mi)
Punctuality
0% (0 flights per day delayed)
Delay Average: 52 minutes
Current Weather
 26 C (Humidity: 83%)
  4kt (7km/h / 4mph) from 190°
  11km (7 mi.)
 
 METAR KHAI 201336Z AUTO 19004KT 7SM CLR 26/23 A3004 RMK AO2 T02610234

Current Flights

Departures
Number Departure To Airline
Arrivals
Number Arrival From Airline

Current Delays

Departures
N/A
Arrivals
N/A

Destinations

Top Destinations
Airport Flights
per week
Seats
per week
  Drummond Island (DRE) 0 - 0 0

Airlines & Planes

Top Airlines
Airline Flights
per Day
Seats
per Day
  Flybe Nordic 0 -
Top Plane Types
Model Flights Seats
Piper PA28R-201T Turbo Arrow IV 0.0/day - 0